NEODyS-2

Near Earth Objects - Dynamic Site
NEODyS ∴ Observatories ∴ Site 691 ∴ Obs & residuals
Contact »
691  ▹ 
OBSERVATIONS AND RESIDUALS

691-Steward Observatory, Kitt Peak-Spacewatch

Detections | Residuals | Detections & Residuals

[1-200] [201-400] [401-600] [601-800] [801-1000] [1001-1200] [1201-1400] [1401-1600] [1601-1800] [1801-2000] [2001-2200] [2201-2400] [2401-2600] [2601-2800] [2801-3000] [3001-3200] [3201-3400] [3401-3600] [3601-3800] [3801-4000] [4001-4200] [4201-4400] [4401-4600] [4601-4800] [4801-5000] [5001-5200] [5201-5400] [5401-5600] [5601-5800] [5801-6000] [6001-6200] [6201-6400] [6401-6600] [6601-6800] [6801-7000] [7001-7200] [7201-7400] [7401-7600] [7601-7800] [7801-8000] [8001-8200] [8201-8400] [8401-8600] [8601-8800] [8801-9000] [9001-9200] [9201-9400] [9401-9600] [9601-9800] [9801-10000] [10001-10200] [10201-10400] [10401-10600] [10601-10800] [10801-11000] [11001-11200] [11201-11400] [11401-11600] [11601-11800] [11801-12000] [12001-12200] [12201-12400] [12401-12600] [12601-12800] [12801-13000] [13001-13200] [13201-13400] [13401-13600] [13601-13800] [13801-14000] [14001-14200] [14201-14400] [14401-14600] [14601-14800] [14801-15000] [15001-15200] [15201-15400] [15401-15600] [15601-15800] [15801-16000] [16001-16200] [16201-16400] [16401-16600] [16601-16800] [16801-17000] [17001-17200] [17201-17400] [17401-17600] [17601-17800] [17801-18000] [18001-18200] [18201-18400] [18401-18600] [18601-18800] [18801-19000] [19001-19200] [19201-19400] [19401-19600] [19601-19800] [19801-20000] [20001-20200] [20201-20400] [20401-20600] [20601-20800] [20801-21000] [21001-21200] [21201-21400] [21401-21600] [21601-21800] [21801-22000] [22001-22200] [22201-22400] [22401-22600] [22601-22800] [22801-23000] [23001-23200] [23201-23400] [23401-23600] [23601-23800] [23801-24000] [24001-24200] [24201-24400] [24401-24600] [24601-24800] [24801-25000] [25001-25200] [25201-25400] [25401-25600] [25601-25800] [25801-26000] [26001-26200] [26201-26400] [26401-26600] [26601-26800] [26801-27000] [27001-27200] [27201-27400] [27401-27600] [27601-27800] [27801-28000] [28001-28200] [28201-28400] [28401-28600] [28601-28800] [28801-29000] [29001-29200] [29201-29400] [29401-29600] [29601-29800] [29801-30000] [30001-30200] [30201-30400] [30401-30600] [30601-30800] [30801-31000] [31001-31200] [31201-31400] [31401-31600] [31601-31800] [31801-32000] [32001-32200] [32201-32400] [32401-32600] [32601-32800] [32801-33000] [33001-33200] [33201-33400] [33401-33600] [33601-33800] [33801-34000] [34001-34200] [34201-34400] [34401-34600] [34601-34800] [34801-35000] [35001-35200] [35201-35400] [35401-35600] [35601-35800] [35801-36000] [36001-36200] [36201-36400] [36401-36600] [36601-36800] [36801-37000] [37001-37200] [37201-37400] [37401-37600] [37601-37800] [37801-38000] [38001-38200] [38201-38400] [38401-38600] [38601-38800] [38801-39000] [39001-39200] [39201-39400] [39401-39600] [39601-39800] [39801-40000] [40001-40200] [40201-40400] [40401-40600] [40601-40800] [40801-41000] [41001-41200] [41201-41400] [41401-41600] [41601-41800] [41801-42000] [42001-42200] [42201-42400] [42401-42600] [42601-42800] [42801-43000] [43001-43200] [43201-43400] [43401-43600] [43601-43800] [43801-44000] [44001-44200] [44201-44400] [44401-44600] [44601-44800] [44801-45000] [45001-45200] [45201-45400] [45401-45600] [45601-45800] [45801-46000] [46001-46200] [46201-46400] [46401-46600] [46601-46800] [46801-47000] [47001-47200] [47201-47400] [47401-47600] [47601-47800] [47801-48000] [48001-48200] [48201-48400] [48401-48600] [48601-48800] [48801-49000] [49001-49200] [49201-49400] [49401-49600] [49601-49800] [49801-50000] [50001-50200] [50201-50388]

Designation T Tech N Date Right Ascension Declination Apparent Magnitude Star Catalog Site code χ Used A Used M
yr-mo-day precision hr:min:sec precision rms F bias residual deg min sec precision rms F bias residual mag/col rms residual
2017OJ19 O C K 2017-08-20.33226 1.000E-05 22:19:08.990 1.500E-01 0.500 F -0.208 0.591 -15° 59' 20.60" 1.000E-01 0.500 F 0.226 0.496 21.1 R 0.70 0.83 o 691 1.60 Yes Yes
2017QM18 O C H 2017-08-30.14032 1.000E-05 16:11:06.210 1.500E-01 0.500 F 0.150 1.526 +26° 29' 29.20" 1.000E-01 0.500 F 0.297 0.226 20.1 R 0.70 0.05 o 691 3.09 Yes Yes
2017QM18 O C H 2017-08-30.14622 1.000E-05 16:11:07.330 1.500E-01 0.500 F 0.150 1.353 +26° 29' 34.80" 1.000E-01 0.500 F 0.297 0.552 20.4 R 0.70 0.35 o 691 2.93 Yes Yes
2017QM18 O C H 2017-08-30.15214 1.000E-05 16:11:08.500 1.500E-01 0.500 F 0.150 1.791 +26° 29' 40.00" 1.000E-01 0.500 F 0.297 0.466 20.7 R 0.70 0.65 o 691 3.69 No Yes
2017QW1 O C H 2017-08-30.20283 1.000E-05 20:39:50.700 1.500E-01 0.500 F -0.078 -1.030 -07° 36' 59.80" 1.000E-01 0.500 F 0.363 0.831 o 691 2.96 Yes No
2017QW1 O C H 2017-08-30.21509 1.000E-05 20:39:49.430 1.500E-01 0.500 F -0.078 -0.027 -07° 36' 33.10" 1.000E-01 0.500 F 0.363 0.168 o 691 0.38 Yes No
2017QW1 O C H 2017-08-30.22735 1.000E-05 20:39:48.170 1.500E-01 0.500 F -0.078 1.167 -07° 36' 05.70" 1.000E-01 0.500 F 0.363 0.136 o 691 2.48 Yes No
2017PS25 O C 2017-08-30.27073 1.000E-05 21:30:37.760 1.500E-01 0.500 F 0.006 0.712 +00° 41' 25.20" 1.000E-01 0.500 F 0.293 2.243 18.5 V 0.70 0.11 o 691 4.68 No Yes
2014NF3 O C H 2017-08-30.27678 1.000E-05 21:51:33.990 1.500E-01 0.500 F -0.052 -0.812 -28° 24' 35.60" 1.000E-01 0.500 F 0.423 0.458 21.0 R 0.70 0.32 o 691 1.90 Yes Yes
2017PS25 O C 2017-08-30.28489 1.000E-05 21:30:39.080 1.500E-01 0.500 F 0.006 0.596 +00° 42' 32.20" 1.000E-01 0.500 F 0.293 2.340 18.5 V 0.70 0.11 o 691 4.80 No Yes
2014NF3 O C H 2017-08-30.29083 1.000E-05 21:51:31.720 1.500E-01 0.500 F -0.042 -1.114 -28° 24' 26.20" 1.000E-01 0.500 F 0.451 0.558 20.8 R 0.70 0.12 o 691 2.53 Yes Yes
2017PS25 O C 2017-08-30.29899 1.000E-05 21:30:40.400 1.500E-01 0.500 F 0.006 0.509 +00° 43' 38.90" 1.000E-01 0.500 F 0.293 2.425 18.6 V 0.70 0.21 o 691 4.92 No Yes
2017KY34 O C H 2017-08-30.36804 1.000E-05 23:14:35.080 1.500E-01 0.500 F -0.038 -0.136 +20° 56' 10.20" 1.000E-01 0.500 F 0.344 -0.210 21.2 R 0.70 0.37 o 691 0.58 Yes Yes
2017KY34 O C H 2017-08-30.38570 1.000E-05 23:14:33.990 1.500E-01 0.500 F -0.038 -0.132 +20° 56' 04.80" 1.000E-01 0.500 F 0.344 0.258 o 691 0.63 Yes No
2017KY34 O C H 2017-08-30.40334 1.000E-05 23:14:32.910 1.500E-01 0.500 F -0.038 -0.085 +20° 55' 58.30" 1.000E-01 0.500 F 0.344 -0.278 21.0 R 0.70 0.17 o 691 0.67 Yes Yes
1998SZ27 O C H 2017-08-30.48599 1.000E-05 04:04:49.330 1.500E-01 0.500 F -0.243 -1.764 +14° 09' 20.50" 1.000E-01 0.500 F 0.157 -3.484 o 691 7.44 No No
1998SZ27 O C H 2017-08-30.49388 1.000E-05 04:04:47.570 1.500E-01 0.500 F -0.243 -1.577 +14° 08' 35.70" 1.000E-01 0.500 F 0.157 -3.528 o 691 7.37 No No
2017QV34 O C H 2017-08-31.13485 1.000E-05 20:55:31.050 1.500E-01 0.500 F 0.040 -0.532 +07° 50' 03.60" 1.000E-01 0.500 F 0.367 -0.422 19.3 R 0.70 0.09 o 691 1.37 Yes Yes
2017QV34 O C H 2017-08-31.14481 1.000E-05 20:55:30.220 1.500E-01 0.500 F 0.040 -0.657 +07° 49' 56.40" 1.000E-01 0.500 F 0.367 -0.452 19.2 R 0.70 -0.01 o 691 1.60 Yes Yes
2017QV34 O C H 2017-08-31.15476 1.000E-05 20:55:29.400 1.500E-01 0.500 F 0.040 -0.594 +07° 49' 49.30" 1.000E-01 0.500 F 0.367 -0.373 19.2 R 0.70 -0.01 o 691 1.41 Yes Yes
2017NV5 O C H 2017-08-31.19754 1.000E-05 20:52:37.920 1.500E-01 0.500 F 0.025 -0.042 +17° 08' 29.90" 1.000E-01 0.500 F 0.327 -0.884 o 691 1.96 Yes No
2017QG3 O C H 2017-08-31.20328 1.000E-05 22:11:30.940 1.500E-01 0.500 F -0.021 0.520 -06° 01' 47.10" 1.000E-01 0.500 F 0.236 0.780 20.1 R 0.70 0.24 o 691 1.92 Yes Yes
2017NV5 O C H 2017-08-31.20929 1.000E-05 20:52:38.130 1.500E-01 0.500 F 0.025 0.149 +17° 08' 00.20" 1.000E-01 0.500 F 0.327 -0.837 o 691 1.88 Yes No
2017QG3 O C H 2017-08-31.21584 1.000E-05 22:11:31.890 1.500E-01 0.500 F -0.021 0.314 -06° 01' 24.50" 1.000E-01 0.500 F 0.236 0.862 19.8 R 0.70 -0.06 o 691 1.88 Yes Yes
2017NV5 O C H 2017-08-31.22184 1.000E-05 20:52:38.360 1.500E-01 0.500 F 0.025 0.445 +17° 07' 28.70" 1.000E-01 0.500 F 0.327 -0.550 o 691 1.55 Yes No
2017QG3 O C H 2017-08-31.22764 1.000E-05 22:11:32.810 1.500E-01 0.500 F -0.021 0.620 -06° 01' 03.20" 1.000E-01 0.500 F 0.236 0.994 o 691 2.40 Yes No
2017QO17 O C H 2017-08-31.35477 1.000E-05 23:44:42.570 1.500E-01 0.500 F -0.114 0.906 -13° 20' 18.80" 1.000E-01 0.500 F 0.292 -0.979 20.4 R 0.70 0.47 o 691 2.68 Yes Yes
2017QO17 O C H 2017-08-31.36653 1.000E-05 23:44:44.210 1.500E-01 0.500 F -0.114 1.060 -13° 20' 34.10" 1.000E-01 0.500 F 0.292 -0.661 20.2 R 0.70 0.27 o 691 2.51 Yes Yes
2017QO17 O C H 2017-08-31.37828 1.000E-05 23:44:45.840 1.500E-01 0.500 F -0.114 1.062 -13° 20' 49.70" 1.000E-01 0.500 F 0.292 -0.698 20.1 R 0.70 0.17 o 691 2.55 Yes Yes
2017OT68 O C H 2017-08-31.38584 1.000E-05 00:52:02.000 1.500E-01 0.500 F -0.211 -0.531 -17° 33' 54.10" 1.000E-01 0.500 F 0.122 -0.084 o 691 1.15 Yes No
2017OT68 O C H 2017-08-31.39900 1.000E-05 00:52:01.950 1.500E-01 0.500 F -0.211 -0.005 -17° 34' 06.00" 1.000E-01 0.500 F 0.122 -0.158 o 691 0.34 Yes No
2017OT68 O C H 2017-08-31.41227 1.000E-05 00:52:01.880 1.500E-01 0.500 F -0.211 0.257 -17° 34' 18.20" 1.000E-01 0.500 F 0.122 -0.472 o 691 1.17 Yes No
2017QL18 O C H 2017-08-31.42767 1.000E-05 02:07:27.810 1.500E-01 0.500 F -0.380 1.378 -12° 01' 10.50" 1.000E-01 0.500 F 0.150 1.031 19.7 R 0.70 0.03 o 691 3.43 No Yes
2017QL18 O C H 2017-08-31.43992 1.000E-05 02:07:29.290 1.500E-01 0.500 F -0.380 1.331 -12° 00' 54.40" 1.000E-01 0.500 F 0.150 0.923 19.7 R 0.70 0.03 o 691 3.23 No Yes
2017QL18 O C H 2017-08-31.45227 1.000E-05 02:07:30.780 1.500E-01 0.500 F -0.380 1.266 -12° 00' 37.80" 1.000E-01 0.500 F 0.150 1.155 19.4 R 0.70 -0.27 o 691 3.42 No Yes
2017PR25 O C 2017-09-01.14018 1.000E-05 15:37:01.670 1.500E-01 0.500 F 0.145 1.088 +24° 51' 10.30" 1.000E-01 0.500 F 0.182 0.029 20.3 V 0.70 -0.42 o 691 2.19 Yes Yes
2017PR25 O C 2017-09-01.14800 1.000E-05 15:37:03.140 1.500E-01 0.500 F 0.145 1.191 +24° 51' 10.00" 1.000E-01 0.500 F 0.182 0.144 20.5 V 0.70 -0.22 o 691 2.42 Yes Yes
2017PR25 O C 2017-09-01.15581 1.000E-05 15:37:04.580 1.500E-01 0.500 F 0.145 0.824 +24° 51' 09.60" 1.000E-01 0.500 F 0.182 0.189 20.3 V 0.70 -0.42 o 691 1.70 Yes Yes
2017QT35 O C H 2017-09-01.34754 1.000E-05 00:14:27.880 1.500E-01 0.612 F -0.129 1.293 +20° 18' 43.40" 1.000E-01 0.612 F 0.275 -0.030 20.4 R 0.70 0.55 o 691 2.13 Yes Yes
2017QT35 O C 2017-09-01.34979 1.000E-05 00:14:28.200 1.500E-01 0.612 F -0.129 1.105 +20° 18' 42.60" 1.000E-01 0.612 F 0.275 -0.366 20.2 V 0.70 -0.05 o 691 1.92 Yes Yes
2017MO7 O C H 2017-09-01.35205 1.000E-05 00:11:49.430 1.500E-01 0.500 F -0.087 -0.149 +22° 21' 29.10" 1.000E-01 0.500 F 0.328 -0.495 20.6 R 0.70 0.73 o 691 1.04 Yes Yes
2017QT35 O C H 2017-09-01.35943 1.000E-05 00:14:29.650 1.500E-01 0.612 F -0.129 1.415 +20° 18' 41.00" 1.000E-01 0.612 F 0.275 0.044 20.7 R 0.70 0.85 o 691 2.34 Yes Yes
2017QT35 O C 2017-09-01.36169 1.000E-05 00:14:29.940 1.500E-01 0.612 F -0.129 0.787 +20° 18' 39.90" 1.000E-01 0.612 F 0.275 -0.579 20.4 V 0.70 0.15 o 691 1.61 Yes Yes
2017MO7 O C H 2017-09-01.36395 1.000E-05 00:11:49.790 1.500E-01 0.500 F -0.087 0.242 +22° 21' 24.50" 1.000E-01 0.500 F 0.328 -0.090 20.7 R 0.70 0.83 o 691 0.52 Yes Yes
2017QT35 O C H 2017-09-01.37151 1.000E-05 00:14:31.420 1.500E-01 0.612 F -0.129 1.152 +20° 18' 38.80" 1.000E-01 0.612 F 0.275 0.412 20.2 R 0.70 0.35 o 691 2.02 Yes Yes
2017QT35 O C 2017-09-01.37377 1.000E-05 00:14:31.680 1.500E-01 0.612 F -0.129 0.102 +20° 18' 38.40" 1.000E-01 0.612 F 0.275 0.499 20.3 V 0.70 0.05 o 691 0.84 Yes Yes
2017MO7 O C H 2017-09-01.37602 1.000E-05 00:11:50.100 1.500E-01 0.500 F -0.087 -0.114 +22° 21' 19.70" 1.000E-01 0.500 F 0.328 0.245 20.4 R 0.70 0.53 o 691 0.55 Yes Yes
2017PA27 O C 2017-09-01.38831 1.000E-05 01:03:11.270 1.500E-01 0.500 F -0.173 0.787 +24° 55' 06.50" 1.000E-01 0.500 F 0.259 -0.095 20.2 V 0.70 -0.17 o 691 1.60 Yes Yes
2017PB27 O C 2017-09-01.39056 1.000E-05 00:46:49.890 1.500E-01 0.500 F -0.132 0.416 +28° 08' 06.50" 1.000E-01 0.500 F 0.162 0.309 20.5 V 0.70 -0.06 o 691 1.09 Yes Yes
2017PA27 O C 2017-09-01.40006 1.000E-05 01:03:13.170 1.500E-01 0.500 F -0.173 2.373 +24° 55' 03.30" 1.000E-01 0.500 F 0.259 -0.364 19.9 V 0.70 -0.47 o 691 4.76 No Yes
2017PB27 O C 2017-09-01.40302 1.000E-05 00:46:50.750 1.500E-01 0.500 F -0.132 0.199 +28° 08' 22.10" 1.000E-01 0.500 F 0.162 0.534 20.5 V 0.70 -0.06 o 691 1.19 Yes Yes
2017PA27 O C 2017-09-01.41454 1.000E-05 01:03:15.260 1.500E-01 0.500 F -0.173 0.926 +24° 54' 59.60" 1.000E-01 0.500 F 0.259 -0.347 20.3 V 0.70 -0.07 o 691 2.00 Yes Yes
2017PB27 O C 2017-09-01.41738 1.000E-05 00:46:51.750 1.500E-01 0.500 F -0.132 0.064 +28° 08' 39.50" 1.000E-01 0.500 F 0.162 0.294 20.2 V 0.70 -0.36 o 691 0.62 Yes Yes
2017OS18 O C H 2017-09-10.27450 1.000E-05 21:50:22.400 1.500E-01 0.500 F 0.186 0.153 -23° 28' 03.10" 1.000E-01 0.500 F 0.529 -0.619 19.1 R 0.70 -1.15 o 691 1.28 Yes Yes
2015QE9 O C H 2017-09-10.27676 1.000E-05 22:10:56.150 1.500E-01 0.500 F -0.190 -0.393 -22° 31' 19.40" 1.000E-01 0.500 F 0.176 -0.092 20.1 R 0.70 -0.18 o 691 0.81 Yes Yes
2017OS18 O C H 2017-09-10.28157 1.000E-05 21:50:22.470 1.500E-01 0.500 F 0.186 -0.214 -23° 28' 00.40" 1.000E-01 0.500 F 0.529 0.433 20.0 R 0.70 -0.25 o 691 0.97 Yes Yes
2015QE9 O C H 2017-09-10.28383 1.000E-05 22:10:55.620 1.500E-01 0.500 F -0.190 0.088 -22° 31' 25.50" 1.000E-01 0.500 F 0.176 0.660 o 691 1.34 Yes No
2017OS18 O C H 2017-09-10.28859 1.000E-05 21:50:22.570 1.500E-01 0.500 F 0.186 -0.165 -23° 27' 59.20" 1.000E-01 0.500 F 0.529 -0.016 20.1 R 0.70 -0.15 o 691 0.34 Yes Yes
1993PB O C 2017-09-10.35674 1.000E-05 21:18:00.520 1.500E-01 0.500 F -0.052 -0.320 +14° 29' 33.20" 1.000E-01 0.500 F 0.309 0.237 o 691 0.80 Yes No
2017QL35 O C H 2017-09-10.36513 1.000E-05 21:20:28.960 1.500E-01 0.500 F -0.004 0.068 +15° 07' 09.30" 1.000E-01 0.500 F 0.330 -0.224 19.1 R 0.70 0.06 o 691 0.47 Yes Yes
1993PB O C 2017-09-10.36513 1.000E-05 21:17:59.640 1.500E-01 0.500 F -0.052 0.012 +14° 29' 30.00" 1.000E-01 0.500 F 0.309 -0.213 o 691 0.43 Yes No
2017QL35 O C H 2017-09-10.37354 1.000E-05 21:20:30.080 1.500E-01 0.500 F -0.004 0.084 +15° 06' 55.00" 1.000E-01 0.500 F 0.330 0.049 19.2 R 0.70 0.16 o 691 0.20 Yes Yes
1993PB O C 2017-09-10.37354 1.000E-05 21:17:58.730 1.500E-01 0.500 F -0.052 -0.074 +14° 29' 27.30" 1.000E-01 0.500 F 0.309 -0.152 o 691 0.34 Yes No
2017OG68 O C K 2017-09-10.41289 1.000E-05 22:51:40.630 1.500E-01 0.500 F -0.083 0.208 +10° 11' 43.10" 1.000E-01 0.500 F 0.089 0.004 20.1 R 0.70 0.03 o 691 0.42 Yes Yes
2017OG68 O C K 2017-09-10.42876 1.000E-05 22:51:41.570 1.500E-01 0.500 F -0.083 0.638 +10° 11' 42.10" 1.000E-01 0.500 F 0.089 0.178 19.5 R 0.70 -0.57 o 691 1.34 Yes Yes
2017OG68 O C K 2017-09-10.44459 1.000E-05 22:51:42.470 1.500E-01 0.500 F -0.083 0.316 +10° 11' 40.70" 1.000E-01 0.500 F 0.089 -0.014 o 691 0.64 Yes No
1998SZ27 O C 2017-09-10.48592 1.000E-05 03:21:29.960 1.500E-01 0.500 F -0.153 -0.289 -04° 52' 05.80" 1.000E-01 0.500 F 0.141 -0.371 19.4 V 0.70 0.22 o 691 0.96 Yes Yes
2007TR65 O C 2017-09-10.48887 1.000E-05 04:30:34.170 1.500E-01 0.500 F -0.095 0.198 +05° 10' 21.50" 1.000E-01 0.500 F 0.303 -0.364 20.8 V 0.70 0.63 o 691 0.84 Yes Yes
1998SZ27 O C 2017-09-10.49181 1.000E-05 03:21:28.300 1.500E-01 0.500 F -0.153 -0.636 -04° 52' 44.80" 1.000E-01 0.500 F 0.141 -1.167 19.2 V 0.70 0.02 o 691 2.72 Yes Yes
2007TR65 O C 2017-09-10.49469 1.000E-05 04:30:33.330 1.500E-01 0.500 F -0.095 -0.545 +05° 10' 30.70" 1.000E-01 0.500 F 0.303 -0.087 20.7 V 0.70 0.53 o 691 1.11 Yes Yes
1998SZ27 O C 2017-09-10.49752 1.000E-05 03:21:26.750 1.500E-01 0.500 F -0.153 -0.087 -04° 53' 20.60" 1.000E-01 0.500 F 0.141 0.064 19.5 V 0.70 0.32 o 691 0.22 Yes Yes
2007TR65 O C 2017-09-10.50035 1.000E-05 04:30:32.570 1.500E-01 0.500 F -0.095 -0.410 +05° 10' 39.40" 1.000E-01 0.500 F 0.303 -0.065 20.4 V 0.70 0.23 o 691 0.84 Yes Yes
2017RM1 O C K 2017-09-11.40054 1.000E-05 22:28:24.480 1.500E-01 0.500 F 0.003 0.039 +30° 03' 11.10" 1.000E-01 0.500 F 0.312 -0.154 o 691 0.32 Yes No
2017RM1 O C K 2017-09-11.40789 1.000E-05 22:28:24.800 1.500E-01 0.500 F 0.003 0.071 +30° 02' 48.70" 1.000E-01 0.500 F 0.312 0.033 o 691 0.16 Yes No
2017RM1 O C K 2017-09-11.41526 1.000E-05 22:28:25.140 1.500E-01 0.500 F 0.003 0.286 +30° 02' 25.80" 1.000E-01 0.500 F 0.312 -0.197 o 691 0.71 Yes No
2017RM1 O C K 2017-09-12.37443 1.000E-05 22:29:18.840 1.500E-01 0.500 F 0.050 -0.238 +29° 15' 47.00" 1.000E-01 0.500 F 0.283 -0.256 19.9 R 0.70 -0.42 o 691 0.71 Yes Yes
2017RM1 O C K 2017-09-12.40377 1.000E-05 22:29:20.030 1.500E-01 0.500 F 0.050 -0.081 +29° 14' 20.80" 1.000E-01 0.500 F 0.283 0.053 19.5 R 0.70 -0.82 o 691 0.20 Yes Yes
2017QG3 O C K 2017-09-12.41192 1.000E-05 22:28:50.080 1.500E-01 0.500 F -0.138 0.127 -00° 42' 37.70" 1.000E-01 0.500 F 0.405 -0.311 19.7 R 0.70 -0.72 o 691 0.68 Yes Yes
2017QG3 O C K 2017-09-12.42173 1.000E-05 22:28:50.800 1.500E-01 0.500 F -0.138 -0.012 -00° 42' 24.60" 1.000E-01 0.500 F 0.405 -0.166 19.3 R 0.70 -1.12 o 691 0.34 Yes Yes
2017QG3 O C K 2017-09-12.43155 1.000E-05 22:28:51.580 1.500E-01 0.500 F -0.138 0.645 -00° 42' 11.50" 1.000E-01 0.500 F 0.405 -0.030 19.3 R 0.70 -1.12 o 691 1.31 Yes Yes
2017PJ26 O C H 2017-09-12.43999 1.000E-05 00:23:31.390 1.500E-01 0.500 F -0.230 0.125 +08° 34' 54.60" 1.000E-01 0.500 F 0.317 -0.026 15.9 R 0.70 -0.12 o 691 0.26 Yes Yes
2017PJ26 O C H 2017-09-12.44340 1.000E-05 00:23:30.800 1.500E-01 0.500 F -0.230 0.155 +08° 35' 30.00" 1.000E-01 0.500 F 0.317 -0.165 15.9 R 0.70 -0.12 o 691 0.46 Yes Yes
2017PJ26 O C H 2017-09-12.44684 1.000E-05 00:23:30.190 1.500E-01 0.500 F -0.138 -0.140 +08° 36' 06.10" 1.000E-01 0.500 F 0.331 0.073 15.9 R 0.70 -0.12 o 691 0.32 Yes Yes
2017HV3 O C K 2017-09-12.44902 1.000E-05 01:11:05.610 1.500E-01 0.500 F -0.192 0.048 -07° 03' 00.50" 1.000E-01 0.500 F 0.187 0.237 19.6 R 0.70 -0.52 o 691 0.49 Yes Yes
1989UP O C H 2017-09-12.45550 1.000E-05 01:17:32.370 1.500E-01 0.500 F -0.348 -0.344 -06° 20' 39.70" 1.000E-01 0.500 F 0.032 0.120 o 691 0.73 Yes No
2017HV3 O C K 2017-09-12.45711 1.000E-05 01:11:05.020 1.500E-01 0.500 F -0.192 -0.237 -07° 03' 29.50" 1.000E-01 0.500 F 0.187 0.204 19.2 R 0.70 -0.92 o 691 0.64 Yes Yes
2017HV3 O C K 2017-09-12.46211 1.000E-05 01:11:04.670 1.500E-01 0.500 F -0.192 -0.230 -07° 03' 47.70" 1.000E-01 0.500 F 0.187 -0.105 o 691 0.51 Yes No
1989UP O C H 2017-09-12.46378 1.000E-05 01:17:33.030 1.500E-01 0.500 F -0.348 -0.088 -06° 20' 40.40" 1.000E-01 0.500 F 0.032 0.228 19.3 R 0.70 -0.01 o 691 0.49 Yes Yes
1989UP O C H 2017-09-12.47195 1.000E-05 01:17:33.660 1.500E-01 0.500 F -0.348 -0.182 -06° 20' 41.30" 1.000E-01 0.500 F 0.032 0.120 19.2 R 0.70 -0.11 o 691 0.44 Yes Yes
2017RU1 O C H 2017-09-13.26207 1.000E-05 21:27:24.330 1.500E-01 0.500 F -0.151 0.335 -12° 26' 09.90" 1.000E-01 0.500 F 0.284 -0.040 18.4 R 0.70 -0.09 o 691 0.68 Yes Yes
2017RV1 O C 2017-09-13.26332 1.000E-05 21:57:04.770 1.500E-01 0.500 F -0.200 -0.102 -01° 22' 28.70" 1.000E-01 0.500 F 0.142 0.052 18.1 V 0.70 0.31 o 691 0.23 Yes Yes
2017RU1 O C H 2017-09-13.27068 1.000E-05 21:27:22.230 1.500E-01 0.500 F -0.151 0.155 -12° 24' 35.40" 1.000E-01 0.500 F 0.284 -0.093 18.4 R 0.70 -0.09 o 691 0.36 Yes Yes
2017RV1 O C 2017-09-13.27192 1.000E-05 21:57:03.440 1.500E-01 0.500 F -0.200 -0.076 -01° 22' 21.60" 1.000E-01 0.500 F 0.142 -0.015 18.2 V 0.70 0.41 o 691 0.16 Yes Yes
2017RU1 O C H 2017-09-13.27928 1.000E-05 21:27:20.140 1.500E-01 0.500 F -0.151 0.017 -12° 23' 00.80" 1.000E-01 0.500 F 0.284 0.017 18.6 R 0.70 0.11 o 691 0.05 Yes Yes
2017RV1 O C 2017-09-13.28053 1.000E-05 21:57:02.100 1.500E-01 0.500 F -0.200 -0.187 -01° 22' 14.50" 1.000E-01 0.500 F 0.142 -0.097 18.1 V 0.70 0.31 o 691 0.42 Yes Yes
2017RW1 O C 2017-09-13.29105 1.000E-05 22:32:38.110 1.500E-01 0.500 F -0.094 -1.441 -00° 32' 25.90" 1.000E-01 0.500 F 0.363 -0.104 19.5 V 0.70 -0.03 o 691 2.90 Yes Yes
2017RW1 O C 2017-09-13.29824 1.000E-05 22:32:37.530 1.500E-01 0.500 F -0.094 -0.001 -00° 32' 58.60" 1.000E-01 0.500 F 0.363 0.786 19.5 V 0.70 -0.03 o 691 1.58 Yes Yes
2017RW1 O C 2017-09-13.30551 1.000E-05 22:32:36.830 1.500E-01 0.500 F -0.138 -0.224 -00° 33' 33.60" 1.000E-01 0.500 F 0.405 -0.255 19.7 V 0.70 0.17 o 691 0.68 Yes Yes
2017RX1 O C H 2017-09-13.31039 1.000E-05 00:26:23.280 1.500E-01 0.500 F -0.146 0.025 +05° 05' 58.70" 1.000E-01 0.500 F 0.341 0.171 17.7 R 0.70 0.35 o 691 0.35 Yes Yes
2017RX1 O C H 2017-09-13.31563 1.000E-05 00:26:23.900 1.500E-01 0.500 F -0.146 0.018 +05° 07' 26.90" 1.000E-01 0.500 F 0.341 -0.292 17.8 R 0.70 0.45 o 691 0.60 Yes Yes
2017RX1 O C H 2017-09-13.32085 1.000E-05 00:26:24.510 1.500E-01 0.500 F -0.119 -0.085 +05° 08' 55.40" 1.000E-01 0.500 F 0.309 -0.068 18.0 R 0.70 0.65 o 691 0.22 Yes Yes
2005UN157 O C K 2017-09-13.37455 1.000E-05 02:30:26.630 1.500E-01 0.500 F -0.220 -0.229 +03° 54' 56.30" 1.000E-01 0.500 F 0.219 -0.221 o 691 0.65 Yes No
2005UN157 O C K 2017-09-13.39214 1.000E-05 02:30:24.130 1.500E-01 0.500 F -0.220 -0.185 +03° 54' 55.50" 1.000E-01 0.500 F 0.219 -0.333 19.9 R 0.70 -0.92 o 691 0.77 Yes Yes
2017NB7 O C K 2017-09-13.41805 1.000E-05 03:00:02.730 1.500E-01 0.500 F -0.351 -0.362 -21° 42' 14.50" 1.000E-01 0.500 F -0.141 0.017 o 691 0.74 Yes No
2017NB7 O C K 2017-09-13.42510 1.000E-05 03:00:02.050 1.500E-01 0.500 F -0.351 -0.224 -21° 42' 08.90" 1.000E-01 0.500 F -0.141 -0.214 o 691 0.63 Yes No
2017NB7 O C K 2017-09-13.43216 1.000E-05 03:00:01.360 1.500E-01 0.500 F -0.351 -0.190 -21° 42' 02.70" 1.000E-01 0.500 F -0.141 0.107 o 691 0.44 Yes No
2017QL18 O C 2017-09-13.46355 1.000E-05 02:33:11.740 1.500E-01 0.500 F -0.281 -0.143 -06° 19' 57.60" 1.000E-01 0.500 F 0.184 0.084 19.3 V 0.70 -0.33 o 691 0.33 Yes Yes
2017QL18 O C 2017-09-13.47040 1.000E-05 02:33:12.410 1.500E-01 0.500 F -0.281 -0.142 -06° 19' 45.10" 1.000E-01 0.500 F 0.184 0.041 19.4 V 0.70 -0.23 o 691 0.30 Yes Yes
2017QL18 O C 2017-09-13.47717 1.000E-05 02:33:13.070 1.500E-01 0.500 F -0.281 -0.180 -06° 19' 32.60" 1.000E-01 0.500 F 0.184 0.138 19.3 V 0.70 -0.33 o 691 0.45 Yes Yes
2017RK1 O C 2017-09-13.48380 1.000E-05 01:25:29.630 1.500E-01 0.500 F -0.227 -0.373 +11° 32' 03.20" 1.000E-01 0.500 F 0.337 -0.125 19.3 V 0.70 0.06 o 691 0.79 Yes Yes
2017RK1 O C 2017-09-13.49058 1.000E-05 01:25:30.570 1.500E-01 0.500 F -0.227 0.181 +11° 31' 53.10" 1.000E-01 0.500 F 0.337 -0.274 20.1 V 0.70 0.86 o 691 0.66 Yes Yes
2017RK1 O C 2017-09-13.49736 1.000E-05 01:25:31.470 1.500E-01 0.500 F -0.227 0.119 +11° 31' 43.40" 1.000E-01 0.500 F 0.337 -0.014 19.2 V 0.70 -0.04 o 691 0.24 Yes Yes
2017RU1 O C K 2017-09-14.13287 1.000E-05 21:24:25.560 1.500E-01 0.500 F -0.081 0.015 -09° 46' 48.00" 1.000E-01 0.500 F 0.318 0.175 17.7 R 0.70 -0.81 o 691 0.35 Yes Yes
2017RU1 O C K 2017-09-14.14543 1.000E-05 21:24:22.650 1.500E-01 0.500 F -0.081 0.073 -09° 44' 30.70" 1.000E-01 0.500 F 0.318 -0.094 17.7 R 0.70 -0.81 o 691 0.24 Yes Yes
2017RU1 O C K 2017-09-14.15793 1.000E-05 21:24:19.750 1.500E-01 0.500 F -0.081 0.255 -09° 42' 13.70" 1.000E-01 0.500 F 0.318 -0.076 17.6 R 0.70 -0.91 o 691 0.54 Yes Yes
2017RW1 O C H 2017-09-14.17163 1.000E-05 22:31:44.750 1.500E-01 0.500 F -0.033 0.180 -01° 45' 56.30" 1.000E-01 0.500 F 0.371 0.359 o 691 0.81 Yes No
2017SM12 O C 2017-09-14.17320 1.000E-05 22:35:12.410 1.500E-01 0.500 F -0.131 -0.253 -02° 18' 13.00" 1.000E-01 0.500 F 0.408 0.738 20.7 V 0.70 0.73 o 691 1.82 Yes Yes
2017RW1 O C H 2017-09-14.18391 1.000E-05 22:31:43.540 1.500E-01 0.500 F -0.033 0.126 -01° 47' 02.70" 1.000E-01 0.500 F 0.371 0.077 19.5 R 0.70 0.50 o 691 0.30 Yes Yes
2017SM12 O C 2017-09-14.18548 1.000E-05 22:35:12.210 1.500E-01 0.500 F -0.207 0.080 -02° 17' 11.70" 1.000E-01 0.500 F 0.303 -0.223 19.9 V 0.70 -0.07 o 691 0.55 Yes Yes
2017RW1 O C H 2017-09-14.19623 1.000E-05 22:31:42.320 1.500E-01 0.500 F -0.033 0.266 -01° 48' 09.10" 1.000E-01 0.500 F 0.371 0.132 19.5 R 0.70 0.51 o 691 0.60 Yes Yes
2017SM12 O C 2017-09-14.19780 1.000E-05 22:35:11.960 1.500E-01 0.500 F -0.207 -0.234 -02° 16' 08.60" 1.000E-01 0.500 F 0.303 0.241 20.4 V 0.70 0.43 o 691 0.78 Yes Yes
2017RV1 O C 2017-09-14.22200 1.000E-05 21:54:49.390 1.500E-01 0.500 F -0.149 -0.162 -01° 08' 44.80" 1.000E-01 0.500 F 0.184 0.307 17.8 V 0.70 0.06 o 691 0.70 Yes Yes
2017RV1 O C 2017-09-14.23620 1.000E-05 21:54:47.090 1.500E-01 0.500 F -0.149 -0.055 -01° 08' 32.50" 1.000E-01 0.500 F 0.184 0.010 17.8 V 0.70 0.06 o 691 0.11 Yes Yes
2017RV1 O C 2017-09-14.25044 1.000E-05 21:54:44.770 1.500E-01 0.500 F -0.149 -0.111 -01° 08' 19.80" 1.000E-01 0.500 F 0.184 0.058 17.8 V 0.70 0.06 o 691 0.25 Yes Yes
2017RP2 O C K 2017-09-14.25357 1.000E-05 23:13:07.610 1.500E-01 0.500 F -0.296 -0.389 -19° 55' 20.40" 1.000E-01 0.500 F -0.006 -0.041 19.0 R 0.70 -1.05 o 691 0.79 Yes Yes
2017RO2 O C H 2017-09-14.25743 1.000E-05 23:08:59.970 1.500E-01 0.500 F -0.182 0.102 -17° 17' 44.00" 1.000E-01 0.500 F 0.269 -0.258 19.8 R 0.70 0.45 o 691 0.56 Yes Yes
2017RP2 O C K 2017-09-14.25864 1.000E-05 23:13:06.900 1.500E-01 0.500 F -0.296 0.401 -19° 55' 30.50" 1.000E-01 0.500 F -0.006 0.289 19.2 R 0.70 -0.85 o 691 0.99 Yes Yes
2017RO2 O C H 2017-09-14.26249 1.000E-05 23:08:58.300 1.500E-01 0.500 F -0.182 0.183 -17° 17' 23.50" 1.000E-01 0.500 F 0.269 -0.253 19.8 R 0.70 0.45 o 691 0.63 Yes Yes
2017RP2 O C K 2017-09-14.26369 1.000E-05 23:13:06.150 1.500E-01 0.500 F -0.296 0.599 -19° 55' 40.80" 1.000E-01 0.500 F -0.006 0.361 19.4 R 0.70 -0.65 o 691 1.40 Yes Yes
2017RO2 O C H 2017-09-14.26754 1.000E-05 23:08:56.610 1.500E-01 0.500 F -0.182 -0.067 -17° 17' 02.60" 1.000E-01 0.500 F 0.269 0.182 19.5 R 0.70 0.15 o 691 0.39 Yes Yes
2017RD15 O C K 2017-09-14.27402 1.000E-05 23:46:12.510 1.500E-01 0.500 F -0.273 -0.218 -19° 00' 45.40" 1.000E-01 0.500 F 0.198 0.377 20.2 R 0.70 -0.69 o 691 0.87 Yes Yes
1999YB O C 2017-09-14.27402 1.000E-05 23:41:45.190 1.500E-01 0.500 F -0.311 -0.448 -19° 39' 20.00" 1.000E-01 0.500 F 0.179 -0.211 18.3 V 0.70 0.41 o 691 0.99 Yes Yes
2017RD15 O C K 2017-09-14.28565 1.000E-05 23:46:11.550 1.500E-01 0.500 F -0.273 -0.238 -19° 00' 55.10" 1.000E-01 0.500 F 0.198 -0.427 19.2 R 0.70 -1.69 o 691 0.98 Yes Yes
1999YB O C 2017-09-14.28565 1.000E-05 23:41:43.690 1.500E-01 0.500 F -0.311 -0.264 -19° 39' 17.70" 1.000E-01 0.500 F 0.179 -0.049 18.2 V 0.70 0.31 o 691 0.54 Yes Yes
2017RD15 O C K 2017-09-14.29717 1.000E-05 23:46:10.610 1.500E-01 0.500 F -0.273 -0.091 -19° 01' 03.40" 1.000E-01 0.500 F 0.198 0.069 20.1 R 0.70 -0.79 o 691 0.23 Yes Yes
1999YB O C 2017-09-14.29717 1.000E-05 23:41:42.200 1.500E-01 0.500 F -0.311 -0.122 -19° 39' 15.50" 1.000E-01 0.500 F 0.179 -0.006 18.2 V 0.70 0.31 o 691 0.24 Yes Yes
2014QL390 O C 2017-09-15.19596 1.000E-05 22:14:28.010 1.500E-01 0.500 F -0.106 -0.069 +03° 56' 12.00" 1.000E-01 0.500 F 0.332 -0.108 o 691 0.26 Yes No
2014QL390 O C 2017-09-15.20047 1.000E-05 22:14:28.220 1.500E-01 0.500 F -0.106 -0.435 +03° 56' 13.20" 1.000E-01 0.500 F 0.332 -0.086 o 691 0.89 Yes No
2014QL390 O C 2017-09-15.20500 1.000E-05 22:14:28.460 1.500E-01 0.500 F -0.106 -0.362 +03° 56' 14.30" 1.000E-01 0.500 F 0.332 -0.167 o 691 0.80 Yes No
2017RL15 O C K 2017-09-15.24000 1.000E-05 23:07:37.000 1.500E-01 0.500 F -0.091 0.293 -01° 41' 06.80" 1.000E-01 0.500 F 0.261 0.091 o 691 0.62 Yes No
2017RL15 O C K 2017-09-15.24301 1.000E-05 23:07:37.260 1.500E-01 0.500 F -0.091 0.448 -01° 41' 13.20" 1.000E-01 0.500 F 0.261 0.290 o 691 1.07 Yes No
2017RL15 O C K 2017-09-15.24602 1.000E-05 23:07:37.480 1.500E-01 0.500 F -0.091 0.005 -01° 41' 19.80" 1.000E-01 0.500 F 0.261 0.289 o 691 0.58 Yes No
2017RO2 O C 2017-09-15.26666 1.000E-05 23:03:48.140 1.500E-01 0.612 F -0.249 -0.344 -16° 09' 43.10" 1.000E-01 0.612 F 0.251 0.354 o 691 0.81 Yes No
2017RH15 O C 2017-09-15.26666 1.000E-05 23:02:21.040 1.500E-01 0.500 F -0.189 -0.369 -15° 52' 51.40" 1.000E-01 0.500 F 0.256 0.189 20.8 V 0.70 0.24 o 691 0.83 Yes Yes
2017RO2 O C 2017-09-15.26846 1.000E-05 23:03:47.580 1.500E-01 0.612 F -0.249 -0.147 -16° 09' 36.20" 1.000E-01 0.612 F 0.251 0.034 o 691 0.25 Yes No
2017RH15 O C 2017-09-15.26846 1.000E-05 23:02:20.910 1.500E-01 0.500 F -0.189 0.080 -15° 52' 54.40" 1.000E-01 0.500 F 0.256 -0.636 20.6 V 0.70 0.04 o 691 1.29 Yes Yes
2017RO2 O C 2017-09-15.27026 1.000E-05 23:03:47.010 1.500E-01 0.612 F -0.249 -0.094 -16° 09' 29.00" 1.000E-01 0.612 F 0.251 0.013 o 691 0.16 Yes No
2017RH15 O C 2017-09-15.27026 1.000E-05 23:02:20.720 1.500E-01 0.500 F -0.189 -0.336 -15° 52' 55.90" 1.000E-01 0.500 F 0.256 0.038 20.6 V 0.70 0.04 o 691 0.68 Yes Yes
2017RO2 O C H 2017-09-15.27172 1.000E-05 23:03:46.570 1.500E-01 0.612 F -0.249 0.270 -16° 09' 23.10" 1.000E-01 0.612 F 0.251 0.055 19.2 R 0.70 -0.18 o 691 0.45 Yes Yes
2017RP2 O C K 2017-09-15.27297 1.000E-05 23:10:54.870 1.500E-01 0.500 F -0.299 -0.319 -20° 29' 52.20" 1.000E-01 0.500 F 0.013 0.033 o 691 0.64 Yes No
2017RO2 O C H 2017-09-15.27560 1.000E-05 23:03:45.330 1.500E-01 0.612 F -0.249 0.220 -16° 09' 08.00" 1.000E-01 0.612 F 0.251 -0.415 18.9 R 0.70 -0.48 o 691 0.77 Yes Yes
2017RO2 O C H 2017-09-15.27948 1.000E-05 23:03:44.080 1.500E-01 0.612 F -0.249 0.025 -16° 08' 52.00" 1.000E-01 0.612 F 0.251 0.008 19.3 R 0.70 -0.08 o 691 0.04 Yes Yes
2017RP2 O C K 2017-09-15.28073 1.000E-05 23:10:53.690 1.500E-01 0.500 F -0.299 0.090 -20° 30' 07.70" 1.000E-01 0.500 F 0.013 0.410 20.0 R 0.70 -0.06 o 691 0.84 Yes Yes
2017RD15 O C K 2017-09-15.32758 1.000E-05 23:44:48.570 1.500E-01 0.500 F -0.273 0.283 -19° 14' 02.60" 1.000E-01 0.500 F 0.198 0.001 o 691 0.57 Yes No
2017RD15 O C K 2017-09-15.33339 1.000E-05 23:44:48.080 1.500E-01 0.500 F -0.273 0.267 -19° 14' 07.80" 1.000E-01 0.500 F 0.198 -0.843 o 691 1.77 Yes No
2017RD15 O C K 2017-09-15.33918 1.000E-05 23:44:47.640 1.500E-01 0.500 F -0.273 0.935 -19° 14' 10.40" 1.000E-01 0.500 F 0.198 0.895 o 691 2.59 Yes No
2017QW17 O C K 2017-09-15.38331 1.000E-05 22:01:43.980 1.500E-01 0.500 F -0.090 -0.360 -03° 12' 20.00" 1.000E-01 0.500 F 0.294 -0.397 o 691 1.08 Yes No
2017QW17 O C K 2017-09-15.39117 1.000E-05 22:01:42.120 1.500E-01 0.500 F -0.090 -0.861 -03° 12' 24.60" 1.000E-01 0.500 F 0.294 0.612 o 691 2.13 Yes No
2001UQ163 O C H 2017-09-15.41134 1.000E-05 02:41:21.420 1.500E-01 0.500 F -0.312 0.294 -11° 17' 11.60" 1.000E-01 0.500 F 0.151 0.176 20.2 R 0.70 0.53 o 691 0.69 Yes Yes
2001UQ163 O C H 2017-09-15.41319 1.000E-05 02:41:21.290 1.500E-01 0.500 F -0.312 -0.050 -11° 17' 09.40" 1.000E-01 0.500 F 0.151 0.015 20.4 R 0.70 0.73 o 691 0.11 Yes Yes
2001UQ163 O C H 2017-09-15.41504 1.000E-05 02:41:21.210 1.500E-01 0.500 F -0.312 0.341 -11° 17' 06.50" 1.000E-01 0.500 F 0.151 0.554 20.2 R 0.70 0.53 o 691 1.31 Yes Yes
2000YG29 O C 2017-09-15.41703 1.000E-05 03:48:53.210 1.500E-01 0.500 F -0.257 -0.590 -21° 15' 18.80" 1.000E-01 0.500 F -0.098 -0.062 20.3 V 0.70 -0.13 o 691 1.19 Yes Yes
2000YG29 O C 2017-09-15.42127 1.000E-05 03:48:53.900 1.500E-01 0.500 F -0.257 -0.710 -21° 15' 22.00" 1.000E-01 0.500 F -0.098 -0.194 20.3 V 0.70 -0.13 o 691 1.48 Yes Yes
2000YG29 O C 2017-09-15.42552 1.000E-05 03:48:54.660 1.500E-01 0.500 F -0.257 0.127 -21° 15' 25.00" 1.000E-01 0.500 F -0.098 -0.121 20.1 V 0.70 -0.33 o 691 0.35 Yes Yes
2012TK123 O C K 2017-09-15.44976 1.000E-05 04:34:34.140 1.500E-01 0.500 F -0.166 0.731 +12° 32' 23.20" 1.000E-01 0.500 F 0.185 -1.121 o 691 2.70 Yes No
2012TK123 O C K 2017-09-15.45369 1.000E-05 04:34:34.910 1.500E-01 0.500 F -0.166 0.094 +12° 32' 30.50" 1.000E-01 0.500 F 0.185 -0.554 o 691 1.14 Yes No
2012TK123 O C K 2017-09-15.45761 1.000E-05 04:34:35.730 1.500E-01 0.500 F -0.166 0.220 +12° 32' 37.80" 1.000E-01 0.500 F 0.185 0.032 o 691 0.46 Yes No
2017HH O C H 2017-09-15.46510 1.000E-05 04:11:08.070 1.500E-01 0.500 F -0.140 -0.502 +07° 05' 29.10" 1.000E-01 0.500 F 0.244 1.297 20.5 R 0.70 1.50 o 691 2.82 Yes Yes
2017HH O C H 2017-09-15.46647 1.000E-05 04:11:07.930 1.500E-01 0.500 F -0.140 0.741 +07° 05' 30.40" 1.000E-01 0.500 F 0.244 0.086 19.8 R 0.70 0.80 o 691 1.50 Yes Yes
1998SZ27 O C H 2017-09-15.48122 1.000E-05 02:58:25.270 1.500E-01 0.500 F -0.373 0.021 -13° 40' 40.20" 1.000E-01 0.500 F 0.093 0.096 o 691 0.20 Yes No
1998SZ27 O C H 2017-09-15.48231 1.000E-05 02:58:24.950 1.500E-01 0.500 F -0.373 0.172 -13° 40' 47.60" 1.000E-01 0.500 F 0.093 -0.643 o 691 1.35 Yes No
1998SZ27 O C H 2017-09-15.48339 1.000E-05 02:58:24.590 1.500E-01 0.500 F -0.373 -0.304 -13° 40' 53.40" 1.000E-01 0.500 F 0.093 0.156 o 691 0.69 Yes No
1989UP O C H 2017-09-15.48592 1.000E-05 01:21:59.720 1.500E-01 0.500 F -0.384 -0.335 -06° 26' 03.40" 1.000E-01 0.500 F 0.069 0.131 19.5 R 0.70 0.41 o 691 0.72 Yes Yes
1989UP O C H 2017-09-15.49014 1.000E-05 01:22:00.060 1.500E-01 0.500 F -0.384 -0.408 -06° 26' 03.90" 1.000E-01 0.500 F 0.069 0.041 19.3 R 0.70 0.21 o 691 0.82 Yes Yes
2017KS31 O C H 2017-09-15.50231 1.000E-05 03:42:37.590 1.500E-01 0.500 F -0.326 0.171 -08° 27' 49.40" 1.000E-01 0.500 F 0.165 -0.091 20.2 R 0.70 -0.19 o 691 0.39 Yes Yes
2017KS31 O C H 2017-09-15.50444 1.000E-05 03:42:37.480 1.500E-01 0.500 F -0.326 -0.275 -08° 27' 47.40" 1.000E-01 0.500 F 0.165 -0.370 21.2 R 0.70 0.81 o 691 0.95 Yes Yes
2004RE84 O C 2017-09-16.14553 1.000E-05 23:38:15.420 1.500E-01 0.500 F -0.092 -0.282 +05° 07' 04.60" 1.000E-01 0.500 F 0.249 0.322 o 691 0.86 Yes No
2004RE84 O C 2017-09-16.15048 1.000E-05 23:38:14.590 1.500E-01 0.500 F -0.092 -0.407 +05° 07' 08.40" 1.000E-01 0.500 F 0.249 0.105 o 691 0.85 Yes No
2004RE84 O C 2017-09-16.15545 1.000E-05 23:38:13.780 1.500E-01 0.500 F -0.092 -0.142 +05° 07' 12.30" 1.000E-01 0.500 F 0.249 -0.027 o 691 0.29 Yes No
2017RX15 O C K 2017-09-16.19975 1.000E-05 23:11:14.750 1.500E-01 0.500 F -0.210 1.626 -07° 19' 59.30" 1.000E-01 0.500 F 0.363 -0.799 o 691 3.59 No No
2017RX15 O C K 2017-09-16.20316 1.000E-05 23:11:14.310 1.500E-01 0.500 F -0.210 0.087 -07° 19' 38.30" 1.000E-01 0.500 F 0.363 0.179 o 691 0.40 Yes No
2017RC15 O C K 2017-09-17.24452 1.000E-05 22:10:54.010 1.500E-01 0.500 F -0.089 -0.752 +00° 59' 42.20" 1.000E-01 0.500 F 0.280 0.588 o 691 1.92 Yes No
2017RC15 O C K 2017-09-17.25009 1.000E-05 22:10:54.940 1.500E-01 0.500 F -0.089 0.717 +00° 59' 30.80" 1.000E-01 0.500 F 0.280 -0.429 o 691 1.68 Yes No
2017RC15 O C K 2017-09-17.25564 1.000E-05 22:10:55.700 1.500E-01 0.500 F -0.089 -0.320 +00° 59' 21.30" 1.000E-01 0.500 F 0.280 0.417 o 691 1.06 Yes No
2017RA14 O C K 2017-09-17.41705 1.000E-05 01:37:14.250 1.500E-01 0.500 F -0.156 0.088 -20° 35' 18.30" 1.000E-01 0.500 F 0.013 -1.314 o 691 2.65 Yes No
2017RA14 O C K 2017-09-17.42220 1.000E-05 01:37:13.620 1.500E-01 0.500 F -0.156 -0.243 -20° 35' 11.60" 1.000E-01 0.500 F 0.013 -0.579 o 691 1.26 Yes No
2017RA14 O C K 2017-09-17.42734 1.000E-05 01:37:12.960 1.500E-01 0.500 F -0.156 -1.019 -20° 35' 05.40" 1.000E-01 0.500 F 0.013 -0.343 o 691 2.16 Yes No
2017RW2 O C K 2017-09-17.45740 1.000E-05 00:27:51.760 1.500E-01 0.500 F -0.185 -1.352 +07° 49' 13.10" 1.000E-01 0.500 F 0.376 0.080 o 691 2.76 Yes No
2017RW2 O C K 2017-09-17.46140 1.000E-05 00:27:54.400 1.500E-01 0.500 F -0.185 0.400 +07° 49' 39.90" 1.000E-01 0.500 F 0.376 0.280 o 691 1.00 Yes No
2017RW2 O C K 2017-09-17.46539 1.000E-05 00:27:56.860 1.500E-01 0.500 F -0.185 -0.502 +07° 50' 06.30" 1.000E-01 0.500 F 0.376 0.137 o 691 1.06 Yes No
2004RE84 O C 2017-09-17.46990 1.000E-05 23:34:26.500 1.500E-01 0.500 F -0.117 -0.371 +05° 25' 33.70" 1.000E-01 0.500 F 0.233 -0.060 o 691 0.76 Yes No
2004RE84 O C 2017-09-17.47696 1.000E-05 23:34:25.210 1.500E-01 0.500 F -0.117 0.547 +05° 25' 39.80" 1.000E-01 0.500 F 0.233 -0.064 o 691 1.11 Yes No
2004RE84 O C 2017-09-17.48401 1.000E-05 23:34:23.800 1.500E-01 0.500 F -0.117 -0.418 +05° 25' 46.00" 1.000E-01 0.500 F 0.233 0.042 o 691 0.85 Yes No
2017RV2 O C H 2017-09-17.50339 1.000E-05 01:02:51.110 1.500E-01 0.500 F -0.181 -0.122 +06° 07' 39.70" 1.000E-01 0.500 F 0.299 0.107 18.5 R 0.70 -0.11 o 691 0.33 Yes Yes
2017RV2 O C H 2017-09-17.50452 1.000E-05 01:02:51.660 1.500E-01 0.500 F -0.181 -0.401 +06° 07' 43.10" 1.000E-01 0.500 F 0.299 -0.016 18.7 R 0.70 0.09 o 691 0.82 Yes Yes
2017RV2 O C H 2017-09-17.50564 1.000E-05 01:02:52.280 1.500E-01 0.500 F -0.181 0.429 +06° 07' 46.40" 1.000E-01 0.500 F 0.299 -0.206 18.7 R 0.70 0.09 o 691 0.97 Yes Yes
2017QM18 O C 2017-09-18.10948 1.000E-05 17:14:26.420 1.500E-01 0.500 F 0.099 -0.213 +29° 53' 31.40" 1.000E-01 0.500 F 0.242 -0.331 20.4 V 0.70 -0.26 o 691 0.79 Yes Yes
2014HQ124 O C K 2017-09-18.11315 1.000E-05 15:05:42.240 1.500E-01 0.500 F 0.278 -0.580 +05° 14' 52.30" 1.000E-01 0.500 F 0.202 -0.269 o 691 1.29 Yes No
2017QM18 O C 2017-09-18.11694 1.000E-05 17:14:27.900 1.500E-01 0.500 F 0.099 -0.609 +29° 53' 34.70" 1.000E-01 0.500 F 0.242 0.069 20.3 V 0.70 -0.36 o 691 1.23 Yes Yes
2014HQ124 O C K 2017-09-18.12061 1.000E-05 15:05:43.270 1.500E-01 0.500 F 0.278 0.151 +05° 14' 59.00" 1.000E-01 0.500 F 0.202 0.003 o 691 0.29 Yes No

[1-200] [201-400] [401-600] [601-800] [801-1000] [1001-1200] [1201-1400] [1401-1600] [1601-1800] [1801-2000] [2001-2200] [2201-2400] [2401-2600] [2601-2800] [2801-3000] [3001-3200] [3201-3400] [3401-3600] [3601-3800] [3801-4000] [4001-4200] [4201-4400] [4401-4600] [4601-4800] [4801-5000] [5001-5200] [5201-5400] [5401-5600] [5601-5800] [5801-6000] [6001-6200] [6201-6400] [6401-6600] [6601-6800] [6801-7000] [7001-7200] [7201-7400] [7401-7600] [7601-7800] [7801-8000] [8001-8200] [8201-8400] [8401-8600] [8601-8800] [8801-9000] [9001-9200] [9201-9400] [9401-9600] [9601-9800] [9801-10000] [10001-10200] [10201-10400] [10401-10600] [10601-10800] [10801-11000] [11001-11200] [11201-11400] [11401-11600] [11601-11800] [11801-12000] [12001-12200] [12201-12400] [12401-12600] [12601-12800] [12801-13000] [13001-13200] [13201-13400] [13401-13600] [13601-13800] [13801-14000] [14001-14200] [14201-14400] [14401-14600] [14601-14800] [14801-15000] [15001-15200] [15201-15400] [15401-15600] [15601-15800] [15801-16000] [16001-16200] [16201-16400] [16401-16600] [16601-16800] [16801-17000] [17001-17200] [17201-17400] [17401-17600] [17601-17800] [17801-18000] [18001-18200] [18201-18400] [18401-18600] [18601-18800] [18801-19000] [19001-19200] [19201-19400] [19401-19600] [19601-19800] [19801-20000] [20001-20200] [20201-20400] [20401-20600] [20601-20800] [20801-21000] [21001-21200] [21201-21400] [21401-21600] [21601-21800] [21801-22000] [22001-22200] [22201-22400] [22401-22600] [22601-22800] [22801-23000] [23001-23200] [23201-23400] [23401-23600] [23601-23800] [23801-24000] [24001-24200] [24201-24400] [24401-24600] [24601-24800] [24801-25000] [25001-25200] [25201-25400] [25401-25600] [25601-25800] [25801-26000] [26001-26200] [26201-26400] [26401-26600] [26601-26800] [26801-27000] [27001-27200] [27201-27400] [27401-27600] [27601-27800] [27801-28000] [28001-28200] [28201-28400] [28401-28600] [28601-28800] [28801-29000] [29001-29200] [29201-29400] [29401-29600] [29601-29800] [29801-30000] [30001-30200] [30201-30400] [30401-30600] [30601-30800] [30801-31000] [31001-31200] [31201-31400] [31401-31600] [31601-31800] [31801-32000] [32001-32200] [32201-32400] [32401-32600] [32601-32800] [32801-33000] [33001-33200] [33201-33400] [33401-33600] [33601-33800] [33801-34000] [34001-34200] [34201-34400] [34401-34600] [34601-34800] [34801-35000] [35001-35200] [35201-35400] [35401-35600] [35601-35800] [35801-36000] [36001-36200] [36201-36400] [36401-36600] [36601-36800] [36801-37000] [37001-37200] [37201-37400] [37401-37600] [37601-37800] [37801-38000] [38001-38200] [38201-38400] [38401-38600] [38601-38800] [38801-39000] [39001-39200] [39201-39400] [39401-39600] [39601-39800] [39801-40000] [40001-40200] [40201-40400] [40401-40600] [40601-40800] [40801-41000] [41001-41200] [41201-41400] [41401-41600] [41601-41800] [41801-42000] [42001-42200] [42201-42400] [42401-42600] [42601-42800] [42801-43000] [43001-43200] [43201-43400] [43401-43600] [43601-43800] [43801-44000] [44001-44200] [44201-44400] [44401-44600] [44601-44800] [44801-45000] [45001-45200] [45201-45400] [45401-45600] [45601-45800] [45801-46000] [46001-46200] [46201-46400] [46401-46600] [46601-46800] [46801-47000] [47001-47200] [47201-47400] [47401-47600] [47601-47800] [47801-48000] [48001-48200] [48201-48400] [48401-48600] [48601-48800] [48801-49000] [49001-49200] [49201-49400] [49401-49600] [49601-49800] [49801-50000] [50001-50200] [50201-50388]